To report an error or other timing issue, please contact a race official.

5K Results

Powered by RedBarn Systems.
Live race results for the Adventurous world!

 

Fastest

CategoryBibNameAvg MileTime
Male26Alejandro Gonzalez 07:19.9 00:22:46.81
Male Master91Albert Gomez 07:30.0 00:23:18.09
Female89Kendall Pearson 07:51.2 00:24:24.12
Female Master38Jenn Kling 10:08.5 00:31:30.59


5K M 18 and Under

PlaceBibNameAvg MileScanTimeTotal Time
126Alejandro Gonzalez 07:19.9 22:4622:46.81
278Jeb Williamson 08:42.6 27:0327:03.56
311Chris Clark 09:48.6 30:2830:28.78
454Harrison Perez 12:43.7 39:3239:32.95
582Christian Martin 18:54.0 58:4358:43.29
6101Matthew Smith 19:35.3 01:00:5101:00:51.59
999940Case Lambeth 00:00.0 DNSDNS
9999103Samuel White 00:00.0 DNSDNS


5K M 19-39

PlaceBibNameAvg MileScanTimeTotal Time
167Andrew Smith 07:29.6 23:1623:16.95
234Gene Jeffus 07:34.3 23:3123:31.48
386Jeffrey Webb 09:52.2 30:3930:39.95
4100Austin 17:47.7 55:1755:17.26
580Troy Martin 18:54.3 58:4458:44.19
99994Helping Angels 00:00.0 DNSDNS
99992Rod Adams 00:00.0 DNSDNS


5K M 40-54

PlaceBibNameAvg MileScanTimeTotal Time
191Albert Gomez 07:30.0 23:1823:18.09
276Keith Williamson 08:18.7 25:4925:49.56
320Carlos Drane 11:11.5 34:4634:46.20
464Ray Rubio 12:17.1 38:1038:10.25
533Jesse Jacquez 13:16.8 41:1541:15.76
628Antonio Harris 13:19.2 41:2341:23.00
794Andy Lopez 13:47.1 42:4942:49.87
870Raymond Stephens 14:14.0 44:1344:13.28
984Willy Townsend 19:37.7 01:00:5901:00:59.11


5K M 55+

PlaceBibNameAvg MileScanTimeTotal Time
198Rocky Lalumia 11:59.8 37:1637:16.25
251Mike Mcwhorter 13:18.3 41:2041:20.20
393Lloyd Greenfield 15:22.3 47:4547:45.69
413Thomas Collins 17:54.6 55:3855:38.62
546Mike Lewis 18:58.7 58:5758:57.92
999961Bobby Rich 00:00.0 DNSDNS
99991Rod Adams 00:00.0 DNSDNS


5K F 18 and Under

PlaceBibNameAvg MileScanTimeTotal Time
189Kendall Pearson 07:51.2 24:2424:24.12
277Lindsey Williamson 10:38.1 33:0233:02.45
339Mandy Lambeth 12:43.2 39:3139:31.20
412Tressa Clark 12:59.0 40:2040:20.48
595Victoria Lopez 13:44.8 42:4242:42.51
656Emma Polk 15:27.0 48:0048:00.22
781Calista Martin 16:46.4 52:0652:06.86
872Lydia Gaige 18:51.0 58:3458:34.08
935Kayla Smith 19:17.7 59:5659:56.90
1055Hannah Polk 20:09.0 01:02:3601:02:36.45
1144Lauren Lewis 21:24.7 01:06:3101:06:31.58
1221Jolie Fischer 21:24.9 01:06:3201:06:32.20
999943Amanda Lewis 00:00.0 DNSDNS
999959Breanna Ragan 00:00.0 DNSDNS


5K F 19-39

PlaceBibNameAvg MileScanTimeTotal Time
185Jennifer Webb 08:37.4 26:4726:47.62
237Heather Kerr 09:11.2 28:3228:32.65
3104Joni Mohr 10:16.4 31:5531:55.00
4105Katlyn Sweet 10:16.8 31:5631:56.31
58Kenyatta Brown 13:24.1 41:3841:38.40
652Monica Owens 13:39.7 42:2642:26.86
73Ashley Ando 13:42.6 42:3542:35.90
853Stefani Schutz 13:51.4 43:0343:03.04
990Lisa Ard 15:00.0 46:3646:36.39
1058Jennifer Prestridge 15:24.4 47:5247:52.22
1123Julie Foster 16:46.5 52:0752:07.20
1279Linda Martin 17:14.8 53:3553:35.25
1399Chelsea 17:47.1 55:1555:15.39
1463Shalon Robertson 18:18.8 56:5456:54.03
1527Alicia Guidry 18:19.1 56:5456:54.97
1697Elizabeth Barkley 19:35.8 01:00:5301:00:53.09
1768Karla Smith 19:36.3 01:00:5401:00:54.79
999983Jamie Sheffield 00:00.0 DNSDNS
999915Lacosta Davis 00:00.0 DNSDNS
999930Temple Hendrickson 00:00.0 DNSDNS
999947Christina Littfack 00:00.0 DNSDNS
999931Susan Huffman 00:00.0 DNSDNS
99997Tyanna Bell 00:00.0 DNSDNS
999925Fairy Gonzalez 00:00.0 DNSDNS


5K F 40-54

PlaceBibNameAvg MileScanTimeTotal Time
138Jenn Kling 10:08.5 31:3031:30.59
229Amy Hayes 10:09.9 31:3431:34.90
365Rennie Scott 10:17.3 31:5731:57.84
432Stephanie Jacquez 10:19.8 32:0532:05.76
575Amy Williamson 10:47.0 33:3033:30.23
624Anne Glasscock 10:57.9 34:0434:04.22
788Mitzi Daniel 12:20.6 38:2138:21.14
86Teresa Bates 12:42.7 39:2939:29.64
957Dena Pope 12:48.2 39:4639:46.90
1066Lisa Smith 12:48.9 39:4839:48.97
1110Lisa Clark 12:59.3 40:2140:21.31
1292Rosalina Whalen 13:17.3 41:1741:17.12
1322Debbie Floyd 15:38.9 48:3748:37.23
1416Dorothy Dillard 16:06.4 50:0250:02.56
1517Kimberly Dillard 16:06.7 50:0350:03.54
1618Dee Dorsey 17:14.7 53:3453:34.89
1719Tracy Drane 18:07.3 56:1856:18.15
1845Amanda S Lewis 18:58.4 58:5658:56.97
1949Cynthia Mateu 20:07.3 01:02:3101:02:31.04
2048Ginger Logan 20:31.0 01:03:4401:03:44.70
21102Kathy White 20:33.3 01:03:5101:03:51.92
2242Vickie Lewis 21:28.0 01:06:4101:06:41.67
999971Jodie Stephens 00:00.0 DNSDNS


5K F 55+

PlaceBibNameAvg MileScanTimeTotal Time
196Debra Lalumia 11:59.5 37:1537:15.33
214Cathy Coulson 15:57.5 49:3449:34.81
373Betty Stoldt 19:18.5 59:5959:59.58
450Peggy Mcwhorter 19:27.4 01:00:2701:00:27.04
55Brenda Barnhart 19:28.0 01:00:2901:00:29.09
674Phyllis Walker 20:04.3 01:02:2101:02:21.89
741Alacia Ledoux 20:30.7 01:03:4301:03:43.62
869Nita Smith 20:31.3 01:03:4501:03:45.59
936Wanda Jones 20:31.9 01:03:4701:03:47.48
999962Cindy Rich 00:00.0 DNSDNS
99999Becky Calabria 00:00.0 DNSDNS
999987Mar Ches Eskridge 00:00.0 DNSDNS
 
 
 
For timing information or questions
Contact - Jim Hall